Time;durP1;ratioP1;P1;durP2;ratioP2;P2;SDS_P1;SDS_P2;PMS_P1;PMS_P2;Temp;Humidity;BMP_temperature;BMP_pressure;BME280_temperature;BME280_humidity;BME280_pressure;Samples;Min_cycle;Max_cycle;Signal;HPM_P1;HPM_P2
2021/03/21 00:01:35;;;;;;;17.63;12.38;;;6.10;89.30;;;;;;5041591;28;20024;-76
2021/03/21 00:04:00;;;;;;;20.33;15.15;;;6.10;90.10;;;;;;5031937;28;20032;-76
2021/03/21 00:06:26;;;;;;;21.67;15.38;;;6.10;90.10;;;;;;5056335;28;20463;-76
2021/03/21 00:08:51;;;;;;;22.35;13.40;;;6.10;90.20;;;;;;5034996;28;20060;-76
2021/03/21 00:11:17;;;;;;;20.38;12.80;;;6.00;90.20;;;;;;5021155;28;20032;-76
2021/03/21 00:13:43;;;;;;;20.73;13.48;;;6.10;89.90;;;;;;5011608;28;20076;-76
2021/03/21 00:16:08;;;;;;;19.30;13.63;;;6.10;90.10;;;;;;5019776;28;20036;-76
2021/03/21 00:18:37;;;;;;;21.48;12.98;;;6.00;90.20;;;;;;5014145;28;20044;-76
2021/03/21 00:21:04;;;;;;;22.23;14.48;;;6.10;90.80;;;;;;5045745;28;20397;-76
2021/03/21 00:23:29;;;;;;;22.27;13.82;;;6.10;90.20;;;;;;5046124;28;20029;-76
2021/03/21 00:25:55;;;;;;;16.23;10.00;;;6.10;90.40;;;;;;5040155;28;20037;-76
2021/03/21 00:28:23;;;;;;;21.23;11.50;;;6.10;90.30;;;;;;5033975;28;20113;-76
2021/03/21 00:30:48;;;;;;;12.70;8.65;;;6.20;90.20;;;;;;5013875;28;20068;-76
2021/03/21 00:33:16;;;;;;;16.90;10.52;;;6.20;90.00;;;;;;5018851;28;20078;-76
2021/03/21 00:35:42;;;;;;;18.00;10.50;;;6.10;90.20;;;;;;5030241;28;20032;-75
2021/03/21 00:38:25;;;;;;;19.60;12.40;;;6.10;90.00;;;;;;5016757;28;20036;-75
2021/03/21 00:40:51;;;;;;;18.13;12.00;;;6.00;90.00;;;;;;5047404;28;20481;-77
2021/03/21 00:43:17;;;;;;;23.60;14.93;;;5.90;90.20;;;;;;5020809;28;20043;-76
2021/03/21 00:45:42;;;;;;;18.02;12.18;;;5.90;90.10;;;;;;5036116;28;20054;-76
2021/03/21 00:48:26;;;;;;;21.60;13.98;;;6.00;90.20;;;;;;5053890;28;20032;-75
2021/03/21 00:50:51;;;;;;;18.10;11.77;;;6.00;90.40;;;;;;5030322;28;20469;-75
2021/03/21 00:53:17;;;;;;;21.73;14.55;;;6.00;90.20;;;;;;5039786;28;20111;-75
2021/03/21 00:55:42;;;;;;;22.15;13.20;;;6.00;90.20;;;;;;5027492;28;20066;-75
2021/03/21 00:58:08;;;;;;;24.13;15.05;;;6.00;90.60;;;;;;5057217;28;20043;-75
2021/03/21 01:00:36;;;;;;;18.95;12.45;;;5.90;90.40;;;;;;5029391;28;20037;-75
2021/03/21 01:03:02;;;;;;;19.40;12.77;;;5.90;90.50;;;;;;5031573;28;20029;-75
2021/03/21 01:05:34;;;;;;;22.45;13.55;;;5.90;90.40;;;;;;5031865;28;20550;-76
2021/03/21 01:08:00;;;;;;;19.52;12.52;;;5.80;90.40;;;;;;5032425;28;20036;-76
2021/03/21 01:10:28;;;;;;;26.85;16.40;;;6.00;90.10;;;;;;5024981;28;20381;-76
2021/03/21 01:12:54;;;;;;;20.80;13.43;;;6.00;90.20;;;;;;5033856;28;20686;-76
2021/03/21 01:15:19;;;;;;;23.85;14.05;;;6.10;90.10;;;;;;5033883;28;20024;-76
2021/03/21 01:17:45;;;;;;;21.55;13.10;;;6.00;90.30;;;;;;5049532;28;20120;-76
2021/03/21 01:20:11;;;;;;;16.15;9.68;;;6.10;90.40;;;;;;5040373;28;20024;-76
2021/03/21 01:22:37;;;;;;;24.05;13.02;;;6.10;90.40;;;;;;5038770;28;20029;-75
2021/03/21 01:25:04;;;;;;;29.38;16.50;;;6.10;90.50;;;;;;5058483;28;20033;-76
2021/03/21 01:27:29;;;;;;;30.88;17.42;;;6.00;90.20;;;;;;5037368;28;20721;-75
2021/03/21 01:29:55;;;;;;;33.58;18.52;;;6.10;91.00;;;;;;5045778;28;20061;-76
2021/03/21 01:32:20;;;;;;;32.80;17.00;;;6.00;90.70;;;;;;5025733;28;20025;-75
2021/03/21 01:34:46;;;;;;;27.23;14.38;;;6.00;90.60;;;;;;5012672;28;20028;-75
2021/03/21 01:37:12;;;;;;;22.38;11.13;;;6.00;91.10;;;;;;5051929;28;20025;-76
2021/03/21 01:39:37;;;;;;;14.43;7.32;;;6.00;91.00;;;;;;5016983;28;20031;-75
2021/03/21 01:42:06;;;;;;;23.73;14.05;;;6.00;90.80;;;;;;5045757;28;20035;-76
2021/03/21 01:44:31;;;;;;;23.33;12.80;;;6.10;90.90;;;;;;5028531;28;20037;-75
2021/03/21 01:46:57;;;;;;;28.17;15.43;;;6.10;90.80;;;;;;5038959;28;20032;-75
2021/03/21 01:49:52;;;;;;;22.60;12.10;;;6.10;91.50;;;;;;5052972;28;20017;-76
2021/03/21 01:52:37;;;;;;;18.33;10.57;;;6.10;91.60;;;;;;5037217;28;20067;-75
2021/03/21 01:55:06;;;;;;;23.83;13.37;;;6.20;92.00;;;;;;5049414;28;20460;-76
2021/03/21 01:57:32;;;;;;;31.67;17.15;;;6.20;91.90;;;;;;5022503;28;20288;-76
2021/03/21 01:59:57;;;;;;;30.90;17.05;;;6.10;91.60;;;;;;5009985;28;20058;-76
2021/03/21 02:02:23;;;;;;;28.50;16.27;;;6.00;91.40;;;;;;5023399;28;20472;-76
2021/03/21 02:04:48;;;;;;;31.52;18.50;;;6.00;91.80;;;;;;5040313;28;20025;-75
2021/03/21 02:07:48;;;;;;;32.35;18.48;;;5.90;91.30;;;;;;5039999;28;20021;-76
2021/03/21 02:10:15;;;;;;;37.90;22.10;;;6.00;91.50;;;;;;5031501;28;20119;-75
2021/03/21 02:12:54;;;;;;;38.25;21.30;;;5.90;91.80;;;;;;5032216;28;20025;-76
2021/03/21 02:15:29;;;;;;;38.78;21.67;;;5.80;91.50;;;;;;5034389;28;20064;-76
2021/03/21 02:17:57;;;;;;;35.65;21.13;;;5.80;91.30;;;;;;5030532;28;20044;-76
2021/03/21 02:20:28;;;;;;;30.30;15.38;;;5.80;91.60;;;;;;5052520;28;20052;-76
2021/03/21 02:23:10;;;;;;;26.58;12.50;;;5.90;92.00;;;;;;5026993;28;20033;-76
2021/03/21 02:25:57;;;;;;;36.90;20.08;;;5.90;92.00;;;;;;5040368;28;20433;-75
2021/03/21 02:28:36;;;;;;;35.33;18.80;;;5.80;92.20;;;;;;5034874;28;20067;-76
2021/03/21 02:31:06;;;;;;;38.25;21.42;;;5.80;92.00;;;;;;5038083;28;20048;-76
2021/03/21 02:33:40;;;;;;;34.78;19.65;;;5.80;92.10;;;;;;5037646;28;20048;-76
2021/03/21 02:36:11;;;;;;;32.28;17.75;;;5.80;92.40;;;;;;5028467;28;20033;-76
2021/03/21 02:38:44;;;;;;;27.90;15.98;;;5.80;92.10;;;;;;5038206;28;20044;-76
2021/03/21 02:41:15;;;;;;;30.70;17.20;;;5.70;92.20;;;;;;5023022;28;20032;-76
2021/03/21 02:43:51;;;;;;;34.63;18.08;;;5.70;92.40;;;;;;5029193;28;20484;-76
2021/03/21 02:46:34;;;;;;;24.90;12.65;;;5.80;92.70;;;;;;5028087;28;20109;-76
2021/03/21 02:49:12;;;;;;;27.67;14.57;;;5.90;92.40;;;;;;5011012;28;20062;-76
2021/03/21 02:51:39;;;;;;;28.05;15.95;;;5.80;92.40;;;;;;5036611;28;20032;-76
2021/03/21 02:54:14;;;;;;;27.13;15.52;;;5.80;92.40;;;;;;5023490;28;20040;-76
2021/03/21 02:56:41;;;;;;;27.95;15.48;;;5.80;92.20;;;;;;5037137;28;20094;-76
2021/03/21 02:59:21;;;;;;;28.33;15.57;;;5.80;92.40;;;;;;5021250;28;20492;-76
2021/03/21 03:01:49;;;;;;;27.55;15.05;;;5.80;92.70;;;;;;5054413;28;20043;-76
2021/03/21 03:04:21;;;;;;;21.45;12.07;;;5.80;92.40;;;;;;5015826;28;20144;-76
2021/03/21 03:06:55;;;;;;;27.25;16.85;;;5.80;92.80;;;;;;5024330;28;20092;-76
2021/03/21 03:09:43;;;;;;;27.63;14.60;;;5.70;92.70;;;;;;5017782;28;20963;-76
2021/03/21 03:12:18;;;;;;;27.52;15.68;;;5.70;92.90;;;;;;5049858;28;20029;-76
2021/03/21 03:14:44;;;;;;;27.83;15.85;;;5.80;92.90;;;;;;5035588;28;20033;-76
2021/03/21 03:17:24;;;;;;;22.75;11.98;;;5.70;92.80;;;;;;5032865;28;20021;-76
2021/03/21 03:19:58;;;;;;;29.38;15.57;;;5.70;92.70;;;;;;5044143;28;20033;-76
2021/03/21 03:22:41;;;;;;;25.38;14.50;;;5.70;92.70;;;;;;5032836;28;20040;-76
2021/03/21 03:25:24;;;;;;;28.73;14.85;;;5.70;93.10;;;;;;5041724;28;20025;-76
2021/03/21 03:28:30;;;;;;;29.40;15.98;;;5.60;92.80;;;;;;5013405;28;20041;-76
2021/03/21 03:31:11;;;;;;;32.47;17.60;;;5.60;92.60;;;;;;5037584;28;20115;-76
2021/03/21 03:33:37;;;;;;;26.10;13.75;;;5.60;92.90;;;;;;5049860;28;20404;-76
2021/03/21 03:36:04;;;;;;;26.75;14.45;;;5.70;93.10;;;;;;5036295;28;20033;-76
2021/03/21 03:38:30;;;;;;;29.05;16.58;;;5.80;92.70;;;;;;5028103;28;20052;-76
2021/03/21 03:41:02;;;;;;;30.88;17.38;;;5.70;92.90;;;;;;5037917;28;20589;-76
2021/03/21 03:43:46;;;;;;;27.38;14.65;;;5.60;93.20;;;;;;5035921;28;20535;-76
2021/03/21 03:46:18;;;;;;;31.60;16.85;;;5.70;92.80;;;;;;5054492;28;20036;-76
2021/03/21 03:49:31;;;;;;;26.40;14.35;;;5.60;92.70;;;;;;5069986;28;20040;-77
2021/03/21 03:52:07;;;;;;;32.72;16.90;;;5.60;93.30;;;;;;5054956;28;20091;-75
2021/03/21 03:54:48;;;;;;;28.92;16.77;;;5.60;93.30;;;;;;5038961;28;20033;-76
2021/03/21 03:57:24;;;;;;;15.52;8.50;;;5.50;93.60;;;;;;5051509;28;20033;-76
2021/03/21 04:00:11;;;;;;;26.45;14.70;;;5.60;93.40;;;;;;5014207;28;20037;-75
2021/03/21 04:02:58;;;;;;;27.60;16.00;;;5.50;93.40;;;;;;5015553;28;20029;-75
2021/03/21 04:05:32;;;;;;;18.38;10.88;;;5.50;93.40;;;;;;5050120;28;20051;-75
2021/03/21 04:08:03;;;;;;;27.88;16.05;;;5.50;93.20;;;;;;5038519;28;20036;-75
2021/03/21 04:10:36;;;;;;;30.88;17.77;;;5.60;93.10;;;;;;5047438;28;20083;-75
2021/03/21 04:13:18;;;;;;;27.02;16.55;;;5.50;93.10;;;;;;5044892;28;20058;-75
2021/03/21 04:15:47;;;;;;;28.60;15.52;;;5.50;93.20;;;;;;5024741;28;20048;-75
2021/03/21 04:18:22;;;;;;;30.90;17.38;;;5.40;93.20;;;;;;5024493;28;20036;-75
2021/03/21 04:20:51;;;;;;;30.70;17.85;;;5.40;93.40;;;;;;5059997;28;20040;-76
2021/03/21 04:23:26;;;;;;;24.42;11.80;;;5.40;93.50;;;;;;5018959;28;20028;-75
2021/03/21 04:25:54;;;;;;;29.17;15.60;;;5.40;93.70;;;;;;5051876;28;20132;-76
2021/03/21 04:28:38;;;;;;;33.92;19.10;;;5.50;93.40;;;;;;5017100;28;20410;-76
2021/03/21 04:31:05;;;;;;;28.98;16.70;;;5.40;93.60;;;;;;5016775;28;20127;-76
2021/03/21 04:33:36;;;;;;;29.50;17.60;;;5.40;93.70;;;;;;5038337;28;20036;-76
2021/03/21 04:36:04;;;;;;;32.63;18.55;;;5.40;93.40;;;;;;5060196;28;20035;-76
2021/03/21 04:38:33;;;;;;;27.45;15.10;;;5.50;93.30;;;;;;5052462;28;20643;-76
2021/03/21 04:40:59;;;;;;;35.88;22.05;;;5.50;93.60;;;;;;5027264;28;20395;-75
2021/03/21 04:43:30;;;;;;;30.10;17.27;;;5.50;93.50;;;;;;5021915;28;20040;-75
2021/03/21 04:45:58;;;;;;;29.80;17.02;;;5.50;93.50;;;;;;5027523;28;20068;-76
2021/03/21 04:48:24;;;;;;;35.13;18.98;;;5.50;93.20;;;;;;5058662;28;20098;-75
2021/03/21 04:51:00;;;;;;;34.78;20.92;;;5.50;93.10;;;;;;5013455;28;20064;-76
2021/03/21 04:53:41;;;;;;;33.58;19.25;;;5.50;93.40;;;;;;5017668;28;20908;-76
2021/03/21 04:56:14;;;;;;;27.95;16.02;;;5.50;93.70;;;;;;5050137;28;20113;-75
2021/03/21 04:58:47;;;;;;;32.20;19.88;;;5.50;93.40;;;;;;5047202;28;20052;-76
2021/03/21 05:01:37;;;;;;;35.88;21.63;;;5.40;93.10;;;;;;5022245;28;20035;-75
2021/03/21 05:04:20;;;;;;;31.42;17.30;;;5.40;93.60;;;;;;5030885;28;20024;-76
2021/03/21 05:06:49;;;;;;;36.67;20.15;;;5.50;93.50;;;;;;5037324;28;20056;-76
2021/03/21 05:09:45;;;;;;;32.63;20.63;;;5.40;93.30;;;;;;5043163;28;20033;-75
2021/03/21 05:12:21;;;;;;;32.65;18.65;;;5.40;93.30;;;;;;5038863;28;20064;-76
2021/03/21 05:14:49;;;;;;;26.95;15.90;;;5.50;93.90;;;;;;5044542;28;20036;-78
2021/03/21 05:17:46;;;;;;;33.00;19.55;;;5.40;94.00;;;;;;5053421;28;20034;-75
2021/03/21 05:20:26;;;;;;;33.58;21.23;;;5.40;93.90;;;;;;5039639;28;20067;-76
2021/03/21 05:22:59;;;;;;;37.47;22.73;;;5.40;93.90;;;;;;5044948;28;20025;-76
2021/03/21 05:25:33;;;;;;;37.65;20.00;;;5.40;93.80;;;;;;5056574;28;20024;-76
2021/03/21 05:28:25;;;;;;;37.53;21.83;;;5.40;93.90;;;;;;5029220;28;21648;-76
2021/03/21 05:30:51;;;;;;;32.47;20.15;;;5.40;94.00;;;;;;5042450;28;20485;-76
2021/03/21 05:33:16;;;;;;;36.15;20.90;;;5.40;94.20;;;;;;5037382;28;20032;-76
2021/03/21 05:35:42;;;;;;;32.78;17.98;;;5.40;94.10;;;;;;5011734;28;20032;-77
2021/03/21 05:38:35;;;;;;;31.83;18.45;;;5.50;94.20;;;;;;5014814;28;20528;-75
2021/03/21 05:41:58;;;;;;;26.98;16.52;;;5.50;94.40;;;;;;5027066;28;20598;-76
2021/03/21 05:44:45;;;;;;;30.20;15.90;;;5.50;94.10;;;;;;4984930;28;20050;-77
2021/03/21 05:47:16;;;;;;;32.00;15.00;;;5.50;94.40;;;;;;4985819;28;20038;-77
2021/03/21 05:50:19;;;;;;;25.63;14.98;;;5.50;95.30;;;;;;5023203;28;20570;-77
2021/03/21 05:53:03;;;;;;;25.20;13.80;;;5.50;94.50;;;;;;5052051;28;20029;-76
2021/03/21 05:55:43;;;;;;;23.45;12.70;;;5.50;94.60;;;;;;5051400;28;20033;-79
2021/03/21 05:58:39;;;;;;;21.08;12.50;;;5.70;94.00;;;;;;5026729;28;20037;-77
2021/03/21 06:01:24;;;;;;;21.57;13.10;;;5.60;94.80;;;;;;5039103;28;20108;-77
2021/03/21 06:04:12;;;;;;;21.58;12.88;;;5.60;94.60;;;;;;5033812;28;20288;-77
2021/03/21 06:07:12;;;;;;;23.58;16.20;;;5.50;94.60;;;;;;5048762;28;20025;-77
2021/03/21 06:09:44;;;;;;;22.63;15.18;;;5.50;95.00;;;;;;5050496;28;20052;-77
2021/03/21 06:12:31;;;;;;;19.85;12.40;;;5.60;94.80;;;;;;5045168;28;20032;-78
2021/03/21 06:15:15;;;;;;;17.25;10.95;;;5.60;94.50;;;;;;5049382;28;20035;-78
2021/03/21 06:18:08;;;;;;;18.45;11.63;;;5.60;94.60;;;;;;5047884;28;20033;-78
2021/03/21 06:20:40;;;;;;;15.73;10.38;;;5.60;94.70;;;;;;5053064;28;20412;-78
2021/03/21 06:23:30;;;;;;;19.20;11.43;;;5.70;94.60;;;;;;5049652;28;20025;-78
2021/03/21 06:26:01;;;;;;;18.60;11.65;;;5.70;94.70;;;;;;5025850;28;20516;-78
2021/03/21 06:28:42;;;;;;;16.50;11.15;;;5.60;95.00;;;;;;5024566;28;20481;-78
2021/03/21 06:31:25;;;;;;;18.70;10.65;;;5.60;95.00;;;;;;5045641;28;20484;-78
2021/03/21 06:34:10;;;;;;;17.95;11.15;;;5.60;95.30;;;;;;5043262;28;20087;-78
2021/03/21 06:37:21;;;;;;;18.17;10.85;;;5.60;94.90;;;;;;5036392;28;20055;-78
2021/03/21 06:40:23;;;;;;;16.45;10.25;;;5.70;95.20;;;;;;5040577;28;20041;-78
2021/03/21 06:43:04;;;;;;;17.17;10.05;;;5.80;95.00;;;;;;5029346;28;20131;-78
2021/03/21 06:45:41;;;;;;;18.27;10.25;;;5.80;94.80;;;;;;5025302;28;20593;-77
2021/03/21 06:48:32;;;;;;;17.58;12.32;;;5.80;95.10;;;;;;5051294;28;20387;-77
2021/03/21 06:51:35;;;;;;;18.50;10.00;;;5.80;95.00;;;;;;5025460;28;20095;-78
2021/03/21 06:54:26;;;;;;;20.13;10.63;;;5.90;94.60;;;;;;5052707;28;20028;-78
2021/03/21 06:57:09;;;;;;;16.45;11.60;;;6.00;95.00;;;;;;5038073;28;20040;-78
2021/03/21 06:59:53;;;;;;;22.05;12.18;;;6.00;95.20;;;;;;5034732;28;20037;-78
2021/03/21 07:02:58;;;;;;;17.90;11.80;;;6.10;95.60;;;;;;5049355;28;20031;-78
2021/03/21 07:06:01;;;;;;;22.00;10.88;;;6.10;95.80;;;;;;5009327;28;20025;-77
2021/03/21 07:08:45;;;;;;;13.43;8.98;;;6.20;96.00;;;;;;5049865;28;20497;-77
2021/03/21 07:11:34;;;;;;;16.48;9.80;;;6.20;95.20;;;;;;5023927;28;20043;-78
2021/03/21 07:14:33;;;;;;;20.20;10.57;;;6.20;95.70;;;;;;5039178;28;20098;-77
2021/03/21 07:17:05;;;;;;;16.05;7.88;;;6.30;96.00;;;;;;5048161;28;20311;-78
2021/03/21 07:19:55;;;;;;;12.32;7.47;;;6.30;95.00;;;;;;5039864;28;20474;-77
2021/03/21 07:22:40;;;;;;;15.77;7.65;;;6.40;95.00;;;;;;5056373;28;20044;-78
2021/03/21 07:25:30;;;;;;;14.68;8.60;;;6.40;94.70;;;;;;5037499;28;20033;-77
2021/03/21 07:28:09;;;;;;;11.70;8.15;;;6.40;95.30;;;;;;5043324;28;20076;-77
2021/03/21 07:30:38;;;;;;;12.20;7.60;;;6.40;95.30;;;;;;5030723;28;20040;-77
2021/03/21 07:33:38;;;;;;;12.20;7.80;;;6.40;95.80;;;;;;5031362;28;20040;-77
2021/03/21 07:36:23;;;;;;;15.70;8.13;;;6.40;95.90;;;;;;5047316;28;20052;-77
2021/03/21 07:39:20;;;;;;;9.98;5.70;;;6.40;96.10;;;;;;5066385;28;20036;-77
2021/03/21 07:42:04;;;;;;;9.75;4.85;;;6.50;96.00;;;;;;5029049;28;20567;-76
2021/03/21 07:44:48;;;;;;;10.93;6.95;;;6.40;96.20;;;;;;5057122;28;20111;-77
2021/03/21 07:48:10;;;;;;;8.70;5.18;;;6.40;96.60;;;;;;5043050;28;20522;-78
2021/03/21 07:50:52;;;;;;;14.25;5.85;;;6.40;96.50;;;;;;4969083;28;20031;-77
2021/03/21 07:53:31;;;;;;;7.22;4.75;;;6.40;97.50;;;;;;4949781;28;20133;-77
2021/03/21 07:55:59;;;;;;;7.97;4.03;;;6.40;96.60;;;;;;5006377;28;20428;-77
2021/03/21 07:58:48;;;;;;;9.98;5.13;;;6.50;96.30;;;;;;5045203;28;20062;-77
2021/03/21 08:01:15;;;;;;;8.70;4.10;;;6.50;97.20;;;;;;5034562;28;20039;-78
2021/03/21 08:03:55;;;;;;;13.25;5.10;;;6.60;96.80;;;;;;5043540;28;20024;-77
2021/03/21 08:06:33;;;;;;;8.38;4.70;;;6.60;97.40;;;;;;5053986;28;20141;-77
2021/03/21 08:09:12;;;;;;;5.72;4.40;;;6.60;97.20;;;;;;5033166;28;20051;-77
2021/03/21 08:11:38;;;;;;;5.57;3.60;;;6.60;97.30;;;;;;5052553;28;20420;-78
2021/03/21 08:14:25;;;;;;;6.32;4.38;;;6.70;97.70;;;;;;5029311;28;20029;-76
2021/03/21 08:16:53;;;;;;;4.35;3.30;;;6.70;98.10;;;;;;5027929;28;20405;-78
2021/03/21 08:19:25;;;;;;;4.43;2.00;;;6.70;97.70;;;;;;5037397;28;20037;-75
2021/03/21 08:21:52;;;;;;;6.22;2.38;;;6.80;97.50;;;;;;5025522;28;20521;-75
2021/03/21 08:24:22;;;;;;;8.55;1.80;;;6.80;97.90;;;;;;5023906;28;20036;-75
2021/03/21 08:26:47;;;;;;;5.55;1.83;;;6.90;97.60;;;;;;5034613;28;20106;-75
2021/03/21 08:29:23;;;;;;;3.47;1.83;;;6.90;97.80;;;;;;5038688;28;20090;-75
2021/03/21 08:32:05;;;;;;;;;;;6.90;97.70;;;;;;5052943;28;20032;-75
2021/03/21 08:34:31;;;;;;;4.50;1.70;;;6.90;97.60;;;;;;5056891;28;19915;-75
2021/03/21 08:37:30;;;;;;;8.38;2.03;;;7.00;97.80;;;;;;5038128;28;20607;-76
2021/03/21 08:40:09;;;;;;;6.40;1.70;;;6.90;97.70;;;;;;5039837;28;20040;-76
2021/03/21 08:42:37;;;;;;;3.30;2.03;;;7.00;97.70;;;;;;5052015;28;20025;-76
2021/03/21 08:45:12;;;;;;;4.30;1.63;;;6.80;97.70;;;;;;5010400;28;20040;-76
2021/03/21 08:47:38;;;;;;;5.38;2.00;;;6.80;97.40;;;;;;5057855;28;20230;-76
2021/03/21 08:50:04;;;;;;;4.05;1.50;;;6.70;97.70;;;;;;5028420;28;20043;-75
2021/03/21 08:52:36;;;;;;;4.13;1.30;;;6.60;97.60;;;;;;5026133;28;20048;-75
2021/03/21 08:55:02;;;;;;;5.35;1.45;;;6.60;97.60;;;;;;5036514;28;20425;-76
2021/03/21 08:57:32;;;;;;;11.32;1.77;;;6.60;97.50;;;;;;5027495;28;20057;-75
2021/03/21 09:00:17;;;;;;;11.77;2.25;;;6.70;97.60;;;;;;5032857;28;20449;-76
2021/03/21 09:02:42;;;;;;;7.45;1.88;;;6.80;97.50;;;;;;5055863;28;20029;-75
2021/03/21 09:05:09;;;;;;;14.23;2.00;;;6.80;97.00;;;;;;5040017;28;20025;-76
2021/03/21 09:07:36;;;;;;;9.00;2.47;;;6.80;97.00;;;;;;5013422;28;20159;-76
2021/03/21 09:10:11;;;;;;;11.63;1.67;;;6.90;96.80;;;;;;5039959;28;20029;-75
2021/03/21 09:12:48;;;;;;;9.45;1.90;;;7.00;96.80;;;;;;5052655;28;20029;-75
2021/03/21 09:15:16;;;;;;;15.93;2.72;;;7.00;96.30;;;;;;5028600;28;20078;-76
2021/03/21 09:17:42;;;;;;;14.65;3.03;;;7.00;95.90;;;;;;5056528;28;20020;-76
2021/03/21 09:20:08;;;;;;;8.77;1.80;;;7.00;95.30;;;;;;5038151;28;20029;-75
2021/03/21 09:22:34;;;;;;;11.10;2.15;;;7.10;95.70;;;;;;5013826;28;20033;-76
2021/03/21 09:25:04;;;;;;;11.13;2.13;;;7.10;95.70;;;;;;5058025;28;20063;-76
2021/03/21 09:27:34;;;;;;;10.80;1.98;;;7.10;95.50;;;;;;5036124;28;20036;-76
2021/03/21 09:30:19;;;;;;;13.00;2.35;;;7.20;95.80;;;;;;5039717;28;20040;-76
2021/03/21 09:32:46;;;;;;;21.80;3.60;;;7.20;95.50;;;;;;5048307;28;20388;-76
2021/03/21 09:35:30;;;;;;;13.68;2.22;;;7.30;95.60;;;;;;5012005;28;20032;-76
2021/03/21 09:38:01;;;;;;;15.52;2.75;;;7.40;95.60;;;;;;5042792;28;20048;-76
2021/03/21 09:40:35;;;;;;;18.08;2.85;;;7.50;95.00;;;;;;5053461;28;20039;-76
2021/03/21 09:43:01;;;;;;;16.67;2.08;;;7.50;94.80;;;;;;5037282;28;20098;-77
2021/03/21 09:45:27;;;;;;;11.55;2.55;;;7.60;94.80;;;;;;5026491;28;20026;-76
2021/03/21 09:47:56;;;;;;;18.15;2.65;;;7.70;94.30;;;;;;5011032;28;20138;-76
2021/03/21 09:50:37;;;;;;;15.18;3.25;;;7.70;93.40;;;;;;5031759;28;20037;-76
2021/03/21 09:53:24;;;;;;;13.32;3.65;;;7.70;93.70;;;;;;5041875;28;20039;-77
2021/03/21 09:55:50;;;;;;;14.38;2.45;;;7.80;93.40;;;;;;5056036;28;20480;-76
2021/03/21 09:58:37;;;;;;;17.20;2.90;;;7.80;93.40;;;;;;5034700;28;20028;-76
2021/03/21 10:01:38;;;;;;;12.88;2.38;;;7.90;93.20;;;;;;5055649;28;20032;-76
2021/03/21 10:04:25;;;;;;;20.63;2.85;;;8.00;93.40;;;;;;5054038;28;20036;-77
2021/03/21 10:06:50;;;;;;;15.40;2.55;;;8.10;92.90;;;;;;5052153;28;20045;-76
2021/03/21 10:09:18;;;;;;;14.15;3.08;;;8.20;92.60;;;;;;5038449;28;20386;-76
2021/03/21 10:11:45;;;;;;;15.30;3.30;;;8.10;91.90;;;;;;5026085;28;20040;-76
2021/03/21 10:14:26;;;;;;;21.60;4.10;;;8.10;92.20;;;;;;5027835;28;20029;-76
2021/03/21 10:16:56;;;;;;;15.77;4.35;;;8.10;91.10;;;;;;5053648;28;20148;-76
2021/03/21 10:19:55;;;;;;;16.35;2.33;;;8.10;91.10;;;;;;5053667;28;20508;-76
2021/03/21 10:22:21;;;;;;;20.92;3.90;;;8.10;90.80;;;;;;5051266;28;20037;-76
2021/03/21 10:24:48;;;;;;;20.13;4.60;;;8.20;91.10;;;;;;5055804;28;20063;-76
2021/03/21 10:27:25;;;;;;;21.30;3.72;;;8.20;90.20;;;;;;5038539;28;20032;-76
2021/03/21 10:30:29;;;;;;;27.67;4.05;;;8.20;90.30;;;;;;5047301;28;20048;-76
2021/03/21 10:33:03;;;;;;;12.85;2.53;;;8.30;90.10;;;;;;4988296;28;20451;-76
2021/03/21 10:35:29;;;;;;;20.20;4.90;;;8.40;91.10;;;;;;5042950;28;20037;-76
2021/03/21 10:38:02;;;;;;;24.38;5.20;;;8.30;88.40;;;;;;5049525;28;20041;-76
2021/03/21 10:40:28;;;;;;;20.98;3.88;;;8.30;89.20;;;;;;5052167;28;20112;-76
2021/03/21 10:43:00;;;;;;;22.25;4.25;;;8.30;88.30;;;;;;5039622;28;20111;-77
2021/03/21 10:45:35;;;;;;;19.88;3.22;;;8.30;87.80;;;;;;5052563;28;20468;-77
2021/03/21 10:48:30;;;;;;;26.38;4.57;;;8.30;87.50;;;;;;5064851;28;20119;-77
2021/03/21 10:51:01;;;;;;;19.00;3.60;;;8.40;86.40;;;;;;5038705;28;20045;-76
2021/03/21 10:53:48;;;;;;;30.25;4.80;;;8.50;88.60;;;;;;5017500;28;20089;-77
2021/03/21 10:56:21;;;;;;;28.38;4.25;;;8.60;87.30;;;;;;5031028;28;20030;-77
2021/03/21 10:58:46;;;;;;;21.92;4.35;;;8.60;87.90;;;;;;5049103;28;20047;-77
2021/03/21 11:01:22;;;;;;;22.70;4.68;;;8.70;87.30;;;;;;5055630;28;20024;-77
2021/03/21 11:03:48;;;;;;;29.70;5.07;;;8.90;87.20;;;;;;5049513;28;20783;-77
2021/03/21 11:06:17;;;;;;;23.73;4.38;;;9.10;87.20;;;;;;5040723;28;20028;-77
2021/03/21 11:08:43;;;;;;;25.38;4.45;;;9.30;86.20;;;;;;5024718;28;20033;-77
2021/03/21 11:11:31;;;;;;;17.25;3.50;;;9.40;85.40;;;;;;5022730;28;20033;-77
2021/03/21 11:14:08;;;;;;;24.65;4.88;;;9.40;86.70;;;;;;5013953;28;20029;-77
2021/03/21 11:16:37;;;;;;;17.38;3.17;;;9.50;84.60;;;;;;5036084;28;20037;-77
2021/03/21 11:19:04;;;;;;;26.17;4.35;;;9.60;86.50;;;;;;5044268;28;20486;-77
2021/03/21 11:21:34;;;;;;;25.23;5.18;;;9.70;87.10;;;;;;5027628;28;20028;-78
2021/03/21 11:24:01;;;;;;;25.70;4.07;;;9.80;84.30;;;;;;5041718;28;20044;-77
2021/03/21 11:26:28;;;;;;;21.60;3.65;;;9.80;83.70;;;;;;5033639;28;20040;-77
2021/03/21 11:29:06;;;;;;;24.30;4.20;;;9.90;86.40;;;;;;5035810;28;20034;-77
2021/03/21 11:31:36;;;;;;;23.45;4.25;;;10.00;84.10;;;;;;5049041;28;20443;-77
2021/03/21 11:34:24;;;;;;;27.33;4.45;;;10.00;82.30;;;;;;5045194;28;20479;-77
2021/03/21 11:37:01;;;;;;;23.10;4.78;;;10.00;82.90;;;;;;5026182;28;20037;-77
2021/03/21 11:39:47;;;;;;;19.58;3.85;;;9.90;82.30;;;;;;5038421;28;20033;-77
2021/03/21 11:42:20;;;;;;;27.97;5.03;;;9.90;82.50;;;;;;5040560;28;20031;-77
2021/03/21 11:44:49;;;;;;;25.95;4.57;;;9.80;83.10;;;;;;5024034;28;20031;-77
2021/03/21 11:47:21;;;;;;;27.58;5.78;;;9.70;83.50;;;;;;5041568;28;20029;-77
2021/03/21 11:49:46;;;;;;;25.63;4.20;;;9.60;82.50;;;;;;5069123;28;20033;-77
2021/03/21 11:52:12;;;;;;;24.00;4.45;;;9.60;82.00;;;;;;5038553;28;20021;-77
2021/03/21 11:54:38;;;;;;;28.00;5.72;;;9.70;82.50;;;;;;5050873;28;20757;-78
2021/03/21 11:57:22;;;;;;;22.00;4.28;;;9.90;79.60;;;;;;5027519;28;20054;-77
2021/03/21 11:59:55;;;;;;;31.98;5.55;;;10.00;79.60;;;;;;5053007;28;20045;-77
2021/03/21 12:02:30;;;;;;;25.90;5.28;;;10.20;77.80;;;;;;5032213;28;20082;-77
2021/03/21 12:04:56;;;;;;;23.27;3.40;;;10.30;76.60;;;;;;5025615;28;20141;-77
2021/03/21 12:07:26;;;;;;;21.08;3.60;;;10.30;78.70;;;;;;5051532;28;20124;-77
2021/03/21 12:09:51;;;;;;;24.52;5.30;;;10.40;80.30;;;;;;5022498;28;20120;-77
2021/03/21 12:12:35;;;;;;;25.27;4.97;;;10.50;76.50;;;;;;4339988;28;10000342;-78
2021/03/21 12:15:24;;;;;;;31.88;4.25;;;10.60;76.40;;;;;;5047150;28;20491;-77
2021/03/21 12:18:16;;;;;;;21.75;4.03;;;10.60;74.10;;;;;;5039525;28;20803;-78
2021/03/21 12:20:45;;;;;;;20.58;3.97;;;10.60;74.90;;;;;;5025656;28;20031;-77
2021/03/21 12:23:35;;;;;;;21.05;4.22;;;10.70;75.30;;;;;;5023615;28;20039;-77
2021/03/21 12:26:14;;;;;;;25.92;4.57;;;10.80;74.30;;;;;;5048805;28;20426;-77
2021/03/21 12:28:51;;;;;;;23.13;3.70;;;10.70;72.80;;;;;;5037214;28;20064;-77
2021/03/21 12:31:31;;;;;;;30.15;5.65;;;10.60;74.20;;;;;;5047621;28;20442;-77
2021/03/21 12:33:57;;;;;;;22.65;4.38;;;10.80;75.10;;;;;;5021587;28;20045;-77
2021/03/21 12:36:27;;;;;;;27.60;4.53;;;10.80;72.70;;;;;;5036890;28;20036;-77
2021/03/21 12:39:14;;;;;;;21.80;4.90;;;10.70;73.50;;;;;;5034098;28;20083;-77
2021/03/21 12:41:43;;;;;;;22.52;3.95;;;10.80;75.20;;;;;;5044954;28;20036;-77
2021/03/21 12:44:13;;;;;;;22.67;4.03;;;11.00;74.90;;;;;;5020086;28;20042;-77
2021/03/21 12:46:54;;;;;;;29.15;4.95;;;11.00;74.10;;;;;;5049920;28;20047;-77
2021/03/21 12:49:38;;;;;;;20.67;4.68;;;11.10;74.10;;;;;;5010959;28;20036;-77
2021/03/21 12:52:25;;;;;;;20.88;4.03;;;11.20;74.90;;;;;;5054025;28;20032;-77
2021/03/21 12:54:51;;;;;;;17.20;4.45;;;11.20;76.00;;;;;;5035387;28;20055;-77
2021/03/21 12:57:17;;;;;;;23.17;4.68;;;11.40;72.00;;;;;;5053576;28;20036;-76
2021/03/21 12:59:53;;;;;;;26.13;5.28;;;11.20;70.40;;;;;;5011055;28;20034;-76
2021/03/21 13:02:36;;;;;;;26.80;5.18;;;11.20;69.40;;;;;;5048422;28;20064;-76
2021/03/21 13:05:07;;;;;;;25.92;6.05;;;11.20;67.80;;;;;;5022030;28;20078;-77
2021/03/21 13:07:32;;;;;;;31.13;4.28;;;11.10;66.10;;;;;;5010989;28;20117;-77
2021/03/21 13:09:58;;;;;;;18.58;4.57;;;11.10;68.20;;;;;;5035575;28;20025;-76
2021/03/21 13:12:24;;;;;;;32.40;5.22;;;11.20;69.30;;;;;;5051817;28;20087;-76
2021/03/21 13:14:50;;;;;;;25.02;6.28;;;11.30;71.40;;;;;;5012255;28;20041;-76
2021/03/21 13:17:16;;;;;;;28.08;5.40;;;11.40;70.50;;;;;;5050616;28;20032;-76
2021/03/21 13:19:42;;;;;;;22.20;3.88;;;11.40;69.80;;;;;;5028979;28;20044;-77
2021/03/21 13:22:07;;;;;;;22.45;5.05;;;11.10;70.00;;;;;;5038227;28;20029;-76
2021/03/21 13:24:34;;;;;;;20.75;4.10;;;11.30;71.40;;;;;;5018858;28;20523;-76